sensor_id;sensor_type;location;lat;lon;timestamp;temperature;humidity
4739;DHT22;2383;48.632;10.156;2022-12-18T00:00:44;-6.20;88.60
4739;DHT22;2383;48.632;10.156;2022-12-18T00:04:48;-6.20;88.50
4739;DHT22;2383;48.632;10.156;2022-12-18T00:08:50;-6.20;88.50
4739;DHT22;2383;48.632;10.156;2022-12-18T00:12:52;-6.30;88.60
4739;DHT22;2383;48.632;10.156;2022-12-18T00:16:54;-6.90;89.00
4739;DHT22;2383;48.632;10.156;2022-12-18T00:20:59;-6.70;89.80
4739;DHT22;2383;48.632;10.156;2022-12-18T00:25:01;-6.90;90.30
4739;DHT22;2383;48.632;10.156;2022-12-18T00:29:11;-6.50;90.10
4739;DHT22;2383;48.632;10.156;2022-12-18T00:33:15;-6.30;89.80
4739;DHT22;2383;48.632;10.156;2022-12-18T00:37:17;-6.40;89.10
4739;DHT22;2383;48.632;10.156;2022-12-18T00:41:25;-6.50;89.80
4739;DHT22;2383;48.632;10.156;2022-12-18T00:45:46;-6.50;90.00
4739;DHT22;2383;48.632;10.156;2022-12-18T00:49:48;-6.50;90.00
4739;DHT22;2383;48.632;10.156;2022-12-18T00:53:50;-6.40;90.00
4739;DHT22;2383;48.632;10.156;2022-12-18T00:57:52;-6.30;88.80
4739;DHT22;2383;48.632;10.156;2022-12-18T01:01:54;-6.30;89.30
4739;DHT22;2383;48.632;10.156;2022-12-18T01:05:56;-6.30;90.00
4739;DHT22;2383;48.632;10.156;2022-12-18T01:09:58;-6.20;89.30
4739;DHT22;2383;48.632;10.156;2022-12-18T01:14:00;-6.10;88.60
4739;DHT22;2383;48.632;10.156;2022-12-18T01:18:02;-6.50;89.50
4739;DHT22;2383;48.632;10.156;2022-12-18T01:22:07;-6.50;89.20
4739;DHT22;2383;48.632;10.156;2022-12-18T01:26:12;-7.20;90.10
4739;DHT22;2383;48.632;10.156;2022-12-18T01:30:14;-7.50;90.50
4739;DHT22;2383;48.632;10.156;2022-12-18T01:34:16;-8.20;91.00
4739;DHT22;2383;48.632;10.156;2022-12-18T01:38:18;-8.40;92.10
4739;DHT22;2383;48.632;10.156;2022-12-18T01:42:20;-8.00;91.70
4739;DHT22;2383;48.632;10.156;2022-12-18T01:46:24;-7.30;91.30
4739;DHT22;2383;48.632;10.156;2022-12-18T01:50:34;-6.80;90.80
4739;DHT22;2383;48.632;10.156;2022-12-18T01:54:37;-6.60;90.50
4739;DHT22;2383;48.632;10.156;2022-12-18T01:59:20;-6.80;90.40
4739;DHT22;2383;48.632;10.156;2022-12-18T02:03:14;-6.50;90.20
4739;DHT22;2383;48.632;10.156;2022-12-18T02:11:59;-6.30;89.40
4739;DHT22;2383;48.632;10.156;2022-12-18T02:20:38;-6.90;89.60
4739;DHT22;2383;48.632;10.156;2022-12-18T02:29:29;-7.20;90.70
4739;DHT22;2383;48.632;10.156;2022-12-18T02:33:34;-7.10;90.90
4739;DHT22;2383;48.632;10.156;2022-12-18T02:37:39;-7.20;90.80
4739;DHT22;2383;48.632;10.156;2022-12-18T02:41:42;-7.30;91.40
4739;DHT22;2383;48.632;10.156;2022-12-18T02:45:57;-7.30;91.50
4739;DHT22;2383;48.632;10.156;2022-12-18T02:59:07;-6.50;90.60
4739;DHT22;2383;48.632;10.156;2022-12-18T03:03:27;-6.40;90.70
4739;DHT22;2383;48.632;10.156;2022-12-18T03:07:40;-6.60;90.50
4739;DHT22;2383;48.632;10.156;2022-12-18T03:11:49;-6.80;90.90
4739;DHT22;2383;48.632;10.156;2022-12-18T03:16:19;-6.80;90.90
4739;DHT22;2383;48.632;10.156;2022-12-18T03:20:25;-6.40;90.70
4739;DHT22;2383;48.632;10.156;2022-12-18T03:24:31;-6.00;90.50
4739;DHT22;2383;48.632;10.156;2022-12-18T03:28:38;-6.10;90.30
4739;DHT22;2383;48.632;10.156;2022-12-18T03:32:50;-6.00;90.80
4739;DHT22;2383;48.632;10.156;2022-12-18T03:37:02;-6.10;90.70
4739;DHT22;2383;48.632;10.156;2022-12-18T03:45:42;-6.20;90.70
4739;DHT22;2383;48.632;10.156;2022-12-18T03:54:07;-6.40;90.90
4739;DHT22;2383;48.632;10.156;2022-12-18T03:58:18;-6.00;91.10
4739;DHT22;2383;48.632;10.156;2022-12-18T04:02:32;-6.00;90.70
4739;DHT22;2383;48.632;10.156;2022-12-18T04:06:37;-5.80;90.60
4739;DHT22;2383;48.632;10.156;2022-12-18T04:10:41;-5.80;90.50
4739;DHT22;2383;48.632;10.156;2022-12-18T04:14:43;-5.70;90.20
4739;DHT22;2383;48.632;10.156;2022-12-18T04:18:47;-6.00;90.40
4739;DHT22;2383;48.632;10.156;2022-12-18T04:22:49;-5.80;90.70
4739;DHT22;2383;48.632;10.156;2022-12-18T04:26:52;-5.70;90.50
4739;DHT22;2383;48.632;10.156;2022-12-18T04:31:01;-5.60;90.40
4739;DHT22;2383;48.632;10.156;2022-12-18T04:35:04;-6.20;90.30
4739;DHT22;2383;48.632;10.156;2022-12-18T04:39:09;-6.10;90.70
4739;DHT22;2383;48.632;10.156;2022-12-18T04:43:11;-6.00;90.50
4739;DHT22;2383;48.632;10.156;2022-12-18T04:47:13;-6.00;90.50
4739;DHT22;2383;48.632;10.156;2022-12-18T04:51:15;-5.80;90.40
4739;DHT22;2383;48.632;10.156;2022-12-18T04:55:17;-5.80;90.30
4739;DHT22;2383;48.632;10.156;2022-12-18T04:59:19;-5.70;90.30
4739;DHT22;2383;48.632;10.156;2022-12-18T05:03:20;-5.90;90.20
4739;DHT22;2383;48.632;10.156;2022-12-18T05:07:22;-5.80;90.40
4739;DHT22;2383;48.632;10.156;2022-12-18T05:11:24;-5.80;90.30
4739;DHT22;2383;48.632;10.156;2022-12-18T05:15:30;-5.60;90.30
4739;DHT22;2383;48.632;10.156;2022-12-18T05:19:32;-5.50;90.20
4739;DHT22;2383;48.632;10.156;2022-12-18T05:23:34;-5.50;90.10
4739;DHT22;2383;48.632;10.156;2022-12-18T05:27:36;-5.60;90.20
4739;DHT22;2383;48.632;10.156;2022-12-18T05:31:38;-5.50;90.30
4739;DHT22;2383;48.632;10.156;2022-12-18T05:35:40;-5.60;90.20
4739;DHT22;2383;48.632;10.156;2022-12-18T05:39:43;-5.40;90.20
4739;DHT22;2383;48.632;10.156;2022-12-18T05:43:45;-5.40;90.20
4739;DHT22;2383;48.632;10.156;2022-12-18T05:47:47;-5.40;90.20
4739;DHT22;2383;48.632;10.156;2022-12-18T05:51:49;-5.40;90.20
4739;DHT22;2383;48.632;10.156;2022-12-18T05:55:51;-5.40;90.20
4739;DHT22;2383;48.632;10.156;2022-12-18T05:59:53;-5.30;90.20
4739;DHT22;2383;48.632;10.156;2022-12-18T06:03:55;-5.40;90.20
4739;DHT22;2383;48.632;10.156;2022-12-18T06:07:57;-5.70;90.80
4739;DHT22;2383;48.632;10.156;2022-12-18T06:11:59;-5.60;90.90
4739;DHT22;2383;48.632;10.156;2022-12-18T06:16:05;-5.80;90.90
4739;DHT22;2383;48.632;10.156;2022-12-18T06:20:07;-5.80;91.00
4739;DHT22;2383;48.632;10.156;2022-12-18T06:24:09;-5.90;91.20
4739;DHT22;2383;48.632;10.156;2022-12-18T06:28:11;-5.70;91.10
4739;DHT22;2383;48.632;10.156;2022-12-18T06:32:13;-5.70;91.10
4739;DHT22;2383;48.632;10.156;2022-12-18T06:36:15;-5.50;91.00
4739;DHT22;2383;48.632;10.156;2022-12-18T06:40:18;-5.50;91.00
4739;DHT22;2383;48.632;10.156;2022-12-18T06:44:20;-5.50;91.00
4739;DHT22;2383;48.632;10.156;2022-12-18T06:48:21;-5.40;91.00
4739;DHT22;2383;48.632;10.156;2022-12-18T06:52:23;-5.40;91.00
4739;DHT22;2383;48.632;10.156;2022-12-18T06:56:25;-5.30;91.10
4739;DHT22;2383;48.632;10.156;2022-12-18T07:00:27;-5.30;91.00
4739;DHT22;2383;48.632;10.156;2022-12-18T07:04:29;-5.20;91.10
4739;DHT22;2383;48.632;10.156;2022-12-18T07:08:32;-5.30;91.00
4739;DHT22;2383;48.632;10.156;2022-12-18T07:12:34;-5.30;91.00
4739;DHT22;2383;48.632;10.156;2022-12-18T07:16:36;-5.40;91.00
4739;DHT22;2383;48.632;10.156;2022-12-18T07:20:38;-5.50;91.10
4739;DHT22;2383;48.632;10.156;2022-12-18T07:24:40;-5.30;91.20
4739;DHT22;2383;48.632;10.156;2022-12-18T07:28:41;-5.50;91.00
4739;DHT22;2383;48.632;10.156;2022-12-18T07:32:43;-5.40;91.30
4739;DHT22;2383;48.632;10.156;2022-12-18T07:36:45;-5.20;91.20
4739;DHT22;2383;48.632;10.156;2022-12-18T07:40:47;-5.20;91.10
4739;DHT22;2383;48.632;10.156;2022-12-18T07:44:49;-5.30;91.30
4739;DHT22;2383;48.632;10.156;2022-12-18T07:48:51;-5.50;91.60
4739;DHT22;2383;48.632;10.156;2022-12-18T07:52:52;-5.90;91.60
4739;DHT22;2383;48.632;10.156;2022-12-18T07:56:54;-5.60;92.10
4739;DHT22;2383;48.632;10.156;2022-12-18T08:05:07;-5.10;91.60
4739;DHT22;2383;48.632;10.156;2022-12-18T08:09:10;-5.30;91.40
4739;DHT22;2383;48.632;10.156;2022-12-18T08:13:12;-5.10;91.50
4739;DHT22;2383;48.632;10.156;2022-12-18T08:17:13;-4.90;91.30
4739;DHT22;2383;48.632;10.156;2022-12-18T08:25:18;-5.60;92.10
4739;DHT22;2383;48.632;10.156;2022-12-18T08:29:20;-5.30;91.80
4739;DHT22;2383;48.632;10.156;2022-12-18T08:33:22;-5.10;91.70
4739;DHT22;2383;48.632;10.156;2022-12-18T08:37:24;-5.00;91.70
4739;DHT22;2383;48.632;10.156;2022-12-18T08:41:26;-4.80;91.50
4739;DHT22;2383;48.632;10.156;2022-12-18T08:45:28;-4.70;91.40
4739;DHT22;2383;48.632;10.156;2022-12-18T08:49:30;-4.80;91.40
4739;DHT22;2383;48.632;10.156;2022-12-18T08:53:32;-4.80;91.30
4739;DHT22;2383;48.632;10.156;2022-12-18T08:57:36;-4.70;91.30
4739;DHT22;2383;48.632;10.156;2022-12-18T09:01:38;-4.70;91.30
4739;DHT22;2383;48.632;10.156;2022-12-18T09:05:40;-4.80;91.30
4739;DHT22;2383;48.632;10.156;2022-12-18T09:09:42;-4.80;91.40
4739;DHT22;2383;48.632;10.156;2022-12-18T09:13:44;-5.30;91.80
4739;DHT22;2383;48.632;10.156;2022-12-18T09:17:46;-4.90;91.90
4739;DHT22;2383;48.632;10.156;2022-12-18T09:21:48;-5.50;91.60
4739;DHT22;2383;48.632;10.156;2022-12-18T09:25:49;-5.80;92.70
4739;DHT22;2383;48.632;10.156;2022-12-18T09:29:51;-5.50;92.70
4739;DHT22;2383;48.632;10.156;2022-12-18T09:33:55;-5.80;92.10
4739;DHT22;2383;48.632;10.156;2022-12-18T09:37:57;-6.40;93.30
4739;DHT22;2383;48.632;10.156;2022-12-18T09:41:59;-5.70;93.60
4739;DHT22;2383;48.632;10.156;2022-12-18T09:46:05;-5.30;92.70
4739;DHT22;2383;48.632;10.156;2022-12-18T09:50:29;-4.90;92.20
4739;DHT22;2383;48.632;10.156;2022-12-18T09:54:37;-4.70;92.00
4739;DHT22;2383;48.632;10.156;2022-12-18T09:58:53;-5.40;92.20
4739;DHT22;2383;48.632;10.156;2022-12-18T10:03:08;-5.30;92.80
4739;DHT22;2383;48.632;10.156;2022-12-18T10:07:28;-5.10;92.70
4739;DHT22;2383;48.632;10.156;2022-12-18T10:11:56;-4.60;92.30
4739;DHT22;2383;48.632;10.156;2022-12-18T10:16:09;-5.30;92.30
4739;DHT22;2383;48.632;10.156;2022-12-18T10:20:25;-5.60;93.00
4739;DHT22;2383;48.632;10.156;2022-12-18T10:24:44;-5.70;93.10
4739;DHT22;2383;48.632;10.156;2022-12-18T10:28:51;-5.90;93.70
4739;DHT22;2383;48.632;10.156;2022-12-18T10:32:53;-5.10;93.30
4739;DHT22;2383;48.632;10.156;2022-12-18T10:36:56;-4.70;92.90
4739;DHT22;2383;48.632;10.156;2022-12-18T10:45:15;-5.70;93.00
4739;DHT22;2383;48.632;10.156;2022-12-18T10:49:26;-5.10;93.50
4739;DHT22;2383;48.632;10.156;2022-12-18T10:53:30;-4.80;92.70
4739;DHT22;2383;48.632;10.156;2022-12-18T10:57:38;-4.50;92.70
4739;DHT22;2383;48.632;10.156;2022-12-18T11:01:58;-4.20;92.50
4739;DHT22;2383;48.632;10.156;2022-12-18T11:06:15;-4.00;92.30
4739;DHT22;2383;48.632;10.156;2022-12-18T11:10:19;-4.70;92.30
4739;DHT22;2383;48.632;10.156;2022-12-18T11:14:33;-5.50;93.20
4739;DHT22;2383;48.632;10.156;2022-12-18T11:18:36;-4.90;93.70
4739;DHT22;2383;48.632;10.156;2022-12-18T11:22:38;-5.80;94.00
4739;DHT22;2383;48.632;10.156;2022-12-18T11:26:41;-5.30;94.20
4739;DHT22;2383;48.632;10.156;2022-12-18T11:30:44;-5.20;93.40
4739;DHT22;2383;48.632;10.156;2022-12-18T11:34:49;-5.30;93.60
4739;DHT22;2383;48.632;10.156;2022-12-18T11:39:09;-5.10;93.80
4739;DHT22;2383;48.632;10.156;2022-12-18T11:43:18;-4.60;93.70
4739;DHT22;2383;48.632;10.156;2022-12-18T11:52:08;-4.20;93.10
4739;DHT22;2383;48.632;10.156;2022-12-18T12:00:27;-3.80;92.40
4739;DHT22;2383;48.632;10.156;2022-12-18T12:09:04;-3.90;92.40
4739;DHT22;2383;48.632;10.156;2022-12-18T12:26:41;-4.90;94.40
4739;DHT22;2383;48.632;10.156;2022-12-18T12:35:29;-4.40;93.50
4739;DHT22;2383;48.632;10.156;2022-12-18T12:39:39;-3.90;93.00
4739;DHT22;2383;48.632;10.156;2022-12-18T12:43:46;-4.30;93.10
4739;DHT22;2383;48.632;10.156;2022-12-18T12:47:53;-4.40;93.30
4739;DHT22;2383;48.632;10.156;2022-12-18T12:52:27;-4.70;93.50
4739;DHT22;2383;48.632;10.156;2022-12-18T13:05:53;-4.50;93.30
4739;DHT22;2383;48.632;10.156;2022-12-18T13:10:23;-3.90;93.20
4739;DHT22;2383;48.632;10.156;2022-12-18T13:14:37;-3.80;92.70
4739;DHT22;2383;48.632;10.156;2022-12-18T13:18:48;-3.90;93.00
4739;DHT22;2383;48.632;10.156;2022-12-18T13:22:51;-4.30;92.90
4739;DHT22;2383;48.632;10.156;2022-12-18T13:26:54;-4.20;93.50
4739;DHT22;2383;48.632;10.156;2022-12-18T13:30:57;-4.60;93.70
4739;DHT22;2383;48.632;10.156;2022-12-18T13:39:21;-3.80;92.70
4739;DHT22;2383;48.632;10.156;2022-12-18T13:43:39;-3.60;92.60
4739;DHT22;2383;48.632;10.156;2022-12-18T13:47:45;-3.60;92.60
4739;DHT22;2383;48.632;10.156;2022-12-18T13:51:49;-3.90;92.60
4739;DHT22;2383;48.632;10.156;2022-12-18T13:55:53;-4.60;93.60
4739;DHT22;2383;48.632;10.156;2022-12-18T13:59:56;-4.20;93.40
4739;DHT22;2383;48.632;10.156;2022-12-18T14:04:18;-4.40;93.00
4739;DHT22;2383;48.632;10.156;2022-12-18T14:08:20;-4.30;93.50
4739;DHT22;2383;48.632;10.156;2022-12-18T14:12:26;-4.70;94.30
4739;DHT22;2383;48.632;10.156;2022-12-18T14:16:48;-4.30;93.70
4739;DHT22;2383;48.632;10.156;2022-12-18T14:20:52;-4.00;93.30
4739;DHT22;2383;48.632;10.156;2022-12-18T14:33:25;-4.30;93.00
4739;DHT22;2383;48.632;10.156;2022-12-18T14:37:27;-4.40;93.20
4739;DHT22;2383;48.632;10.156;2022-12-18T14:41:29;-4.10;93.30
4739;DHT22;2383;48.632;10.156;2022-12-18T14:45:41;-3.90;93.00
4739;DHT22;2383;48.632;10.156;2022-12-18T14:49:45;-4.50;93.30
4739;DHT22;2383;48.632;10.156;2022-12-18T14:53:58;-5.00;93.50
4739;DHT22;2383;48.632;10.156;2022-12-18T14:58:01;-5.70;94.90
4739;DHT22;2383;48.632;10.156;2022-12-18T15:02:13;-5.00;94.70
4739;DHT22;2383;48.632;10.156;2022-12-18T15:06:31;-5.10;94.40
4739;DHT22;2383;48.632;10.156;2022-12-18T15:10:33;-4.30;93.80
4739;DHT22;2383;48.632;10.156;2022-12-18T15:14:40;-4.10;93.10
4739;DHT22;2383;48.632;10.156;2022-12-18T15:18:43;-4.80;93.70
4739;DHT22;2383;48.632;10.156;2022-12-18T15:22:47;-5.10;94.00
4739;DHT22;2383;48.632;10.156;2022-12-18T15:26:49;-5.20;94.30
4739;DHT22;2383;48.632;10.156;2022-12-18T15:31:04;-4.80;94.40
4739;DHT22;2383;48.632;10.156;2022-12-18T15:35:21;-4.60;94.10
4739;DHT22;2383;48.632;10.156;2022-12-18T15:39:24;-4.70;93.90
4739;DHT22;2383;48.632;10.156;2022-12-18T15:43:26;-4.90;94.00
4739;DHT22;2383;48.632;10.156;2022-12-18T15:47:38;-4.60;94.10
4739;DHT22;2383;48.632;10.156;2022-12-18T15:51:40;-4.50;93.70
4739;DHT22;2383;48.632;10.156;2022-12-18T15:55:42;-4.60;93.70
4739;DHT22;2383;48.632;10.156;2022-12-18T16:00:03;-4.40;93.50
4739;DHT22;2383;48.632;10.156;2022-12-18T16:04:05;-4.30;93.40
4739;DHT22;2383;48.632;10.156;2022-12-18T16:08:07;-4.20;93.20
4739;DHT22;2383;48.632;10.156;2022-12-18T16:12:19;-4.10;93.20
4739;DHT22;2383;48.632;10.156;2022-12-18T16:16:22;-4.30;93.00
4739;DHT22;2383;48.632;10.156;2022-12-18T16:20:24;-4.10;93.10
4739;DHT22;2383;48.632;10.156;2022-12-18T16:24:28;-4.10;92.90
4739;DHT22;2383;48.632;10.156;2022-12-18T16:28:31;-4.10;92.70
4739;DHT22;2383;48.632;10.156;2022-12-18T16:32:32;-4.50;92.70
4739;DHT22;2383;48.632;10.156;2022-12-18T16:36:34;-4.90;93.10
4739;DHT22;2383;48.632;10.156;2022-12-18T16:40:37;-4.70;93.40
4739;DHT22;2383;48.632;10.156;2022-12-18T16:44:59;-5.20;94.00
4739;DHT22;2383;48.632;10.156;2022-12-18T16:49:01;-4.60;93.70
4739;DHT22;2383;48.632;10.156;2022-12-18T16:53:03;-4.30;93.10
4739;DHT22;2383;48.632;10.156;2022-12-18T16:57:05;-4.10;93.00
4739;DHT22;2383;48.632;10.156;2022-12-18T17:01:09;-4.30;92.80
4739;DHT22;2383;48.632;10.156;2022-12-18T17:05:11;-4.60;93.20
4739;DHT22;2383;48.632;10.156;2022-12-18T17:09:15;-5.30;94.10
4739;DHT22;2383;48.632;10.156;2022-12-18T17:13:17;-5.20;94.20
4739;DHT22;2383;48.632;10.156;2022-12-18T17:17:26;-4.50;93.80
4739;DHT22;2383;48.632;10.156;2022-12-18T17:21:28;-4.40;93.10
4739;DHT22;2383;48.632;10.156;2022-12-18T17:25:30;-4.60;93.20
4739;DHT22;2383;48.632;10.156;2022-12-18T17:29:31;-4.80;93.70
4739;DHT22;2383;48.632;10.156;2022-12-18T17:33:34;-4.90;93.50
4739;DHT22;2383;48.632;10.156;2022-12-18T17:37:36;-4.80;93.60
4739;DHT22;2383;48.632;10.156;2022-12-18T17:41:37;-4.90;93.50
4739;DHT22;2383;48.632;10.156;2022-12-18T17:45:39;-5.30;94.10
4739;DHT22;2383;48.632;10.156;2022-12-18T17:49:41;-4.80;94.00
4739;DHT22;2383;48.632;10.156;2022-12-18T17:53:43;-4.50;93.50
4739;DHT22;2383;48.632;10.156;2022-12-18T17:57:45;-4.60;93.20
4739;DHT22;2383;48.632;10.156;2022-12-18T18:01:48;-4.30;93.20
4739;DHT22;2383;48.632;10.156;2022-12-18T18:05:57;-4.50;93.00
4739;DHT22;2383;48.632;10.156;2022-12-18T18:09:59;-4.40;93.20
4739;DHT22;2383;48.632;10.156;2022-12-18T18:14:02;-4.50;93.10
4739;DHT22;2383;48.632;10.156;2022-12-18T18:18:05;-4.30;93.00
4739;DHT22;2383;48.632;10.156;2022-12-18T18:22:07;-4.00;92.80
4739;DHT22;2383;48.632;10.156;2022-12-18T18:26:09;-4.10;92.60
4739;DHT22;2383;48.632;10.156;2022-12-18T18:30:11;-4.30;92.60
4739;DHT22;2383;48.632;10.156;2022-12-18T18:34:21;-4.60;93.10
4739;DHT22;2383;48.632;10.156;2022-12-18T18:38:23;-4.60;93.20
4739;DHT22;2383;48.632;10.156;2022-12-18T18:42:25;-4.40;93.20
4739;DHT22;2383;48.632;10.156;2022-12-18T18:46:27;-4.70;92.90
4739;DHT22;2383;48.632;10.156;2022-12-18T18:50:29;-4.90;93.70
4739;DHT22;2383;48.632;10.156;2022-12-18T18:54:31;-4.80;93.50
4739;DHT22;2383;48.632;10.156;2022-12-18T18:58:33;-4.70;93.40
4739;DHT22;2383;48.632;10.156;2022-12-18T19:02:35;-4.30;93.50
4739;DHT22;2383;48.632;10.156;2022-12-18T19:06:40;-4.50;93.00
4739;DHT22;2383;48.632;10.156;2022-12-18T19:10:43;-4.70;93.20
4739;DHT22;2383;48.632;10.156;2022-12-18T19:14:45;-4.80;93.50
4739;DHT22;2383;48.632;10.156;2022-12-18T19:18:48;-4.90;93.50
4739;DHT22;2383;48.632;10.156;2022-12-18T19:22:54;-5.30;93.90
4739;DHT22;2383;48.632;10.156;2022-12-18T19:26:56;-4.90;94.00
4739;DHT22;2383;48.632;10.156;2022-12-18T19:31:01;-5.00;93.70
4739;DHT22;2383;48.632;10.156;2022-12-18T19:35:03;-4.90;94.10
4739;DHT22;2383;48.632;10.156;2022-12-18T19:39:11;-4.80;93.60
4739;DHT22;2383;48.632;10.156;2022-12-18T19:43:13;-4.70;93.80
4739;DHT22;2383;48.632;10.156;2022-12-18T19:47:16;-4.20;93.50
4739;DHT22;2383;48.632;10.156;2022-12-18T19:51:21;-4.00;93.10
4739;DHT22;2383;48.632;10.156;2022-12-18T19:55:23;-4.50;92.80
4739;DHT22;2383;48.632;10.156;2022-12-18T19:59:25;-4.70;93.30
4739;DHT22;2383;48.632;10.156;2022-12-18T20:03:28;-4.80;93.80
4739;DHT22;2383;48.632;10.156;2022-12-18T20:07:33;-4.60;93.70
4739;DHT22;2383;48.632;10.156;2022-12-18T20:11:35;-4.40;93.60
4739;DHT22;2383;48.632;10.156;2022-12-18T20:15:42;-4.00;93.20
4739;DHT22;2383;48.632;10.156;2022-12-18T20:19:46;-3.80;92.90
4739;DHT22;2383;48.632;10.156;2022-12-18T20:23:48;-3.80;92.70
4739;DHT22;2383;48.632;10.156;2022-12-18T20:27:50;-3.70;92.70
4739;DHT22;2383;48.632;10.156;2022-12-18T20:31:52;-4.10;92.70
4739;DHT22;2383;48.632;10.156;2022-12-18T20:36:03;-4.20;93.00
4739;DHT22;2383;48.632;10.156;2022-12-18T20:40:07;-4.60;93.00
4739;DHT22;2383;48.632;10.156;2022-12-18T20:44:14;-4.20;93.10
4739;DHT22;2383;48.632;10.156;2022-12-18T20:48:24;-4.20;92.90
4739;DHT22;2383;48.632;10.156;2022-12-18T20:52:27;-4.10;92.80
4739;DHT22;2383;48.632;10.156;2022-12-18T20:56:29;-4.10;93.00
4739;DHT22;2383;48.632;10.156;2022-12-18T21:00:34;-4.30;93.20
4739;DHT22;2383;48.632;10.156;2022-12-18T21:04:35;-4.20;93.40
4739;DHT22;2383;48.632;10.156;2022-12-18T21:08:37;-4.20;92.80
4739;DHT22;2383;48.632;10.156;2022-12-18T21:12:42;-4.90;93.10
4739;DHT22;2383;48.632;10.156;2022-12-18T21:17:05;-4.70;93.50
4739;DHT22;2383;48.632;10.156;2022-12-18T21:21:07;-4.70;93.30
4739;DHT22;2383;48.632;10.156;2022-12-18T21:25:09;-4.70;93.60
4739;DHT22;2383;48.632;10.156;2022-12-18T21:29:13;-4.60;93.30
4739;DHT22;2383;48.632;10.156;2022-12-18T21:33:15;-4.70;93.60
4739;DHT22;2383;48.632;10.156;2022-12-18T21:37:17;-4.80;93.70
4739;DHT22;2383;48.632;10.156;2022-12-18T21:41:20;-4.50;93.50
4739;DHT22;2383;48.632;10.156;2022-12-18T21:45:43;-4.00;93.20
4739;DHT22;2383;48.632;10.156;2022-12-18T21:49:45;-3.80;92.60
4739;DHT22;2383;48.632;10.156;2022-12-18T21:53:46;-3.60;92.40
4739;DHT22;2383;48.632;10.156;2022-12-18T21:57:52;-3.60;92.30
4739;DHT22;2383;48.632;10.156;2022-12-18T22:01:56;-3.50;92.30
4739;DHT22;2383;48.632;10.156;2022-12-18T22:05:59;-3.50;92.20
4739;DHT22;2383;48.632;10.156;2022-12-18T22:10:10;-3.70;92.40
4739;DHT22;2383;48.632;10.156;2022-12-18T22:14:12;-3.40;92.10
4739;DHT22;2383;48.632;10.156;2022-12-18T22:18:15;-3.50;92.00
4739;DHT22;2383;48.632;10.156;2022-12-18T22:22:17;-3.80;92.20
4739;DHT22;2383;48.632;10.156;2022-12-18T22:26:19;-3.60;92.20
4739;DHT22;2383;48.632;10.156;2022-12-18T22:30:21;-3.50;92.00
4739;DHT22;2383;48.632;10.156;2022-12-18T22:34:23;-3.70;91.90
4739;DHT22;2383;48.632;10.156;2022-12-18T22:38:25;-3.80;92.40
4739;DHT22;2383;48.632;10.156;2022-12-18T22:42:27;-3.70;92.40
4739;DHT22;2383;48.632;10.156;2022-12-18T22:46:31;-3.40;92.20
4739;DHT22;2383;48.632;10.156;2022-12-18T22:50:33;-3.30;92.00
4739;DHT22;2383;48.632;10.156;2022-12-18T22:54:35;-3.40;91.90
4739;DHT22;2383;48.632;10.156;2022-12-18T22:58:37;-3.30;91.90
4739;DHT22;2383;48.632;10.156;2022-12-18T23:02:39;-3.20;91.70
4739;DHT22;2383;48.632;10.156;2022-12-18T23:06:42;-3.30;92.10
4739;DHT22;2383;48.632;10.156;2022-12-18T23:10:44;-3.40;92.00
4739;DHT22;2383;48.632;10.156;2022-12-18T23:14:46;-3.30;91.80
4739;DHT22;2383;48.632;10.156;2022-12-18T23:18:53;-3.50;92.00
4739;DHT22;2383;48.632;10.156;2022-12-18T23:22:55;-3.70;91.80
4739;DHT22;2383;48.632;10.156;2022-12-18T23:26:57;-3.80;92.30
4739;DHT22;2383;48.632;10.156;2022-12-18T23:31:19;-3.80;92.50
4739;DHT22;2383;48.632;10.156;2022-12-18T23:35:22;-3.80;92.60
4739;DHT22;2383;48.632;10.156;2022-12-18T23:39:23;-3.70;92.40
4739;DHT22;2383;48.632;10.156;2022-12-18T23:43:30;-3.70;92.20
4739;DHT22;2383;48.632;10.156;2022-12-18T23:47:32;-3.70;92.40
4739;DHT22;2383;48.632;10.156;2022-12-18T23:51:34;-3.50;92.40
4739;DHT22;2383;48.632;10.156;2022-12-18T23:55:42;-3.70;92.20
4739;DHT22;2383;48.632;10.156;2022-12-18T23:59:44;-3.40;92.40
